Time;durP1;ratioP1;P1;durP2;ratioP2;P2;SDS_P1;SDS_P2;PMS_P1;PMS_P2;Temp;Humidity;BMP_temperature;BMP_pressure;BME280_temperature;BME280_humidity;BME280_pressure;Samples;Min_cycle;Max_cycle;Signal;HPM_P1;HPM_P2
2023/03/16 00:02:08;;;;;;;19.95;15.60;;;;;;;11.52;46.36;98448.25;4972617;28;20520;-81
2023/03/16 00:04:36;;;;;;;20.00;15.30;;;;;;;10.94;46.51;98353.97;4987756;28;20031;-82
2023/03/16 00:07:06;;;;;;;22.38;16.25;;;;;;;10.74;46.46;98322.34;4972505;28;20559;-81
2023/03/16 00:09:32;;;;;;;21.17;16.85;;;;;;;11.30;45.92;98408.91;4974313;28;20450;-81
2023/03/16 00:12:01;;;;;;;20.17;16.77;;;;;;;11.59;45.79;98449.03;4976533;28;20022;-82
2023/03/16 00:14:27;;;;;;;23.05;17.92;;;;;;;11.17;45.96;98408.16;4976405;28;20534;-81
2023/03/16 00:16:53;;;;;;;21.88;18.00;;;;;;;11.44;46.13;98442.19;4974964;28;20023;-82
2023/03/16 00:19:18;;;;;;;24.77;18.58;;;;;;;10.64;45.88;98311.44;4976135;28;20025;-82
2023/03/16 00:21:43;;;;;;;22.65;18.25;;;;;;;10.96;45.94;98366.97;4975918;28;20420;-82
2023/03/16 00:24:11;;;;;;;23.33;17.13;;;;;;;11.56;45.79;98452.09;4975868;28;20101;-82
2023/03/16 00:26:37;;;;;;;20.67;15.90;;;;;;;11.44;46.12;98444.81;4975685;28;20026;-82
2023/03/16 00:29:02;;;;;;;18.77;15.50;;;;;;;11.01;45.61;98367.13;4975692;28;20027;-82
2023/03/16 00:31:28;;;;;;;20.92;15.10;;;;;;;11.35;45.37;98432.06;4975653;28;20030;-81
2023/03/16 00:33:53;;;;;;;21.67;14.35;;;;;;;11.14;45.38;98417.28;4975698;28;20027;-83
2023/03/16 00:36:18;;;;;;;20.40;15.13;;;;;;;11.11;45.21;98397.38;4975690;28;20023;-82
2023/03/16 00:38:44;;;;;;;22.08;14.40;;;;;;;10.88;45.07;98372.47;4975640;28;20031;-82
2023/03/16 00:41:13;;;;;;;15.35;13.70;;;;;;;11.37;45.30;98461.72;4975657;28;20094;-82
2023/03/16 00:43:40;;;;;;;20.52;14.48;;;;;;;11.51;45.17;98459.84;4974382;28;20027;-82
2023/03/16 00:46:07;;;;;;;19.35;14.25;;;;;;;11.11;45.19;98407.94;4975448;28;20088;-82
2023/03/16 00:48:41;;;;;;;20.05;16.08;;;;;;;11.49;45.32;98464.53;4975569;28;20105;-82
2023/03/16 00:51:11;;;;;;;21.60;15.57;;;;;;;11.36;45.50;98460.91;4990459;28;20412;-81
2023/03/16 00:53:38;;;;;;;21.00;16.40;;;;;;;11.48;45.46;98460.25;4975445;28;20023;-82
2023/03/16 00:56:04;;;;;;;25.45;18.17;;;;;;;10.56;45.51;98326.69;4975416;28;20026;-82
2023/03/16 00:58:35;;;;;;;25.05;17.17;;;;;;;11.40;45.26;98451.53;4974183;28;20018;-83
2023/03/16 01:01:06;;;;;;;25.90;17.88;;;;;;;11.18;45.71;98409.78;4990114;28;20019;-82
2023/03/16 01:03:32;;;;;;;22.17;17.67;;;;;;;10.99;45.62;98385.03;4975326;28;20031;-82
2023/03/16 01:06:03;;;;;;;24.55;19.05;;;;;;;11.34;45.73;98441.81;4975403;28;20023;-82
2023/03/16 01:08:28;;;;;;;23.55;18.33;;;;;;;11.30;45.52;98448.53;4975588;28;20479;-82
2023/03/16 01:10:54;;;;;;;24.33;18.88;;;;;;;11.16;46.14;98431.13;4975039;28;20031;-83
2023/03/16 01:13:20;;;;;;;24.00;19.00;;;;;;;11.28;45.74;98450.56;4975128;28;20031;-82
2023/03/16 01:15:46;;;;;;;27.30;19.63;;;;;;;10.92;45.61;98392.16;4975159;28;20492;-82
2023/03/16 01:18:12;;;;;;;26.80;19.17;;;;;;;10.95;46.19;98410.22;4975026;28;20078;-82
2023/03/16 01:20:38;;;;;;;26.00;18.63;;;;;;;10.65;45.68;98360.56;4973089;28;20591;-82
2023/03/16 01:23:04;;;;;;;23.48;18.17;;;;;;;11.00;46.13;98421.78;4974786;28;20093;-82
2023/03/16 01:25:31;;;;;;;25.13;19.00;;;;;;;11.26;45.77;98457.91;4974810;28;20496;-82
2023/03/16 01:27:56;;;;;;;25.40;20.08;;;;;;;11.26;46.03;98465.03;4974828;28;20506;-81
2023/03/16 01:30:22;;;;;;;28.52;21.05;;;;;;;11.16;46.51;98467.28;4974555;28;20110;-82
2023/03/16 01:32:48;;;;;;;30.02;21.33;;;;;;;10.64;47.00;98393.25;4974710;28;20027;-82
2023/03/16 01:35:13;;;;;;;27.13;21.00;;;;;;;11.06;46.60;98460.59;4974919;28;20023;-81
2023/03/16 01:37:38;;;;;;;25.83;20.55;;;;;;;10.62;46.75;98413.75;4974888;28;20066;-83
2023/03/16 01:40:07;;;;;;;25.15;19.80;;;;;;;10.79;47.09;98420.22;4974587;28;20500;-82
2023/03/16 01:42:44;;;;;;;25.45;20.08;;;;;;;11.04;46.68;98464.44;4989311;28;20019;-82
2023/03/16 01:45:46;;;;;;;25.83;20.75;;;;;;;11.01;47.46;98468.31;4974628;28;20022;-82
2023/03/16 01:48:13;;;;;;;21.75;19.35;;;;;;;10.07;46.64;98323.47;4974591;28;20484;-82
2023/03/16 01:50:40;;;;;;;28.80;19.45;;;;;;;11.05;47.16;98466.88;4974372;28;20034;-83
2023/03/16 01:53:07;;;;;;;30.05;19.60;;;;;;;10.49;46.40;98371.56;4974373;28;20085;-82
2023/03/16 01:55:32;;;;;;;24.00;18.05;;;;;;;10.74;46.27;98403.38;4989108;28;20461;-82
2023/03/16 01:57:58;;;;;;;21.48;17.25;;;;;;;10.79;46.23;98419.41;4974085;28;20055;-82
2023/03/16 02:00:30;;;;;;;23.23;17.63;;;;;;;10.49;46.75;98379.47;4973073;28;20043;-83
2023/03/16 02:02:57;;;;;;;;;;;;;;;11.01;47.16;98486.00;4974555;28;20023;-82
2023/03/16 02:05:38;;;;;;;24.10;16.85;;;;;;;10.77;47.38;98443.38;4974219;28;19910;-82
2023/03/16 02:08:05;;;;;;;22.70;17.23;;;;;;;10.42;46.97;98426.19;4974065;28;20439;-82
2023/03/16 02:10:32;;;;;;;21.10;16.75;;;;;;;11.14;46.86;98491.25;4974160;28;20484;-82
2023/03/16 02:12:58;;;;;;;20.60;16.63;;;;;;;10.74;47.24;98442.97;4974016;28;20508;-81
2023/03/16 02:15:24;;;;;;;20.52;16.77;;;;;;;10.43;47.64;98383.75;4974149;28;20031;-82
2023/03/16 02:17:49;;;;;;;20.88;16.75;;;;;;;11.08;47.19;98495.53;4973904;28;20030;-82
2023/03/16 02:20:41;;;;;;;21.63;16.95;;;;;;;11.10;47.90;98497.97;4988714;28;20030;-81
2023/03/16 02:23:17;;;;;;;18.00;16.05;;;;;;;11.12;47.54;98498.56;4988625;28;20030;-82
2023/03/16 02:25:57;;;;;;;18.65;14.52;;;;;;;11.21;47.35;98500.00;4988751;28;20031;-83
2023/03/16 02:28:49;;;;;;;20.00;15.23;;;;;;;11.22;48.61;98500.81;4972424;28;20169;-83
2023/03/16 02:31:16;;;;;;;20.33;16.20;;;;;;;11.11;48.03;98495.13;4973740;28;20117;-82
2023/03/16 02:33:43;;;;;;;20.92;16.20;;;;;;;10.92;48.04;98460.81;4972711;28;20062;-82
2023/03/16 02:36:09;;;;;;;20.02;16.23;;;;;;;10.72;47.77;98437.91;4973588;28;20018;-83
2023/03/16 02:38:34;;;;;;;21.02;16.80;;;;;;;10.63;48.34;98449.69;4988533;28;20027;-82
2023/03/16 02:41:10;;;;;;;22.55;17.77;;;;;;;11.22;48.18;98527.22;4973452;28;20080;-82
2023/03/16 02:43:38;;;;;;;22.33;16.95;;;;;;;11.23;48.17;98520.91;4973483;28;20126;-82
2023/03/16 02:46:04;;;;;;;23.05;17.05;;;;;;;11.23;48.03;98521.72;4973447;28;20416;-82
2023/03/16 02:48:42;;;;;;;20.75;16.77;;;;;;;11.25;48.74;98532.09;4973711;28;20619;-82
2023/03/16 02:51:08;;;;;;;21.45;16.90;;;;;;;10.56;48.28;98413.78;4972090;28;20567;-82
2023/03/16 02:53:33;;;;;;;21.13;17.25;;;;;;;10.30;48.92;98389.00;4988197;28;20081;-81
2023/03/16 02:56:01;;;;;;;22.42;17.02;;;;;;;11.16;49.08;98528.88;4973096;28;20106;-83
2023/03/16 02:58:27;;;;;;;20.45;17.00;;;;;;;10.39;49.26;98408.91;4973067;28;20011;-82
2023/03/16 03:00:53;;;;;;;22.45;18.15;;;;;;;10.42;49.39;98431.44;4973116;28;20043;-82
2023/03/16 03:03:18;;;;;;;22.25;16.02;;;;;;;10.43;49.27;98452.34;4973486;28;20496;-83
2023/03/16 03:05:44;;;;;;;21.73;16.63;;;;;;;10.52;49.25;98462.72;4987902;28;20113;-82
2023/03/16 03:08:09;;;;;;;21.85;15.80;;;;;;;11.17;49.21;98542.88;4973127;28;20050;-82
2023/03/16 03:10:35;;;;;;;22.15;16.92;;;;;;;11.13;49.48;98537.16;4973005;28;20041;-82
2023/03/16 03:13:00;;;;;;;18.77;16.20;;;;;;;10.70;49.34;98460.25;4973208;28;20035;-83
2023/03/16 03:15:26;;;;;;;19.50;16.40;;;;;;;10.64;48.84;98453.16;4972952;28;20023;-82
2023/03/16 03:17:51;;;;;;;19.65;16.27;;;;;;;10.86;49.27;98501.25;4972991;28;20462;-82
2023/03/16 03:20:17;;;;;;;18.77;16.40;;;;;;;10.99;49.48;98528.47;4971773;28;20452;-82
2023/03/16 03:22:44;;;;;;;21.52;17.10;;;;;;;11.31;49.83;98565.63;4971665;28;20110;-82
2023/03/16 03:25:12;;;;;;;18.85;16.42;;;;;;;11.36;49.22;98568.47;4972715;28;20170;-82
2023/03/16 03:27:38;;;;;;;18.50;15.63;;;;;;;9.64;49.30;98316.97;4971446;28;20397;-82
2023/03/16 03:30:06;;;;;;;18.52;15.32;;;;;;;9.20;49.59;98239.31;4987562;28;20025;-82
2023/03/16 03:32:31;;;;;;;19.33;16.42;;;;;;;10.40;49.89;98426.38;4987688;28;20467;-82
2023/03/16 03:34:56;;;;;;;19.25;15.43;;;;;;;10.53;49.37;98453.78;4972839;28;20033;-82
2023/03/16 03:37:23;;;;;;;18.48;15.10;;;;;;;10.60;50.28;98468.59;4972657;28;20023;-83
2023/03/16 03:39:49;;;;;;;19.27;14.43;;;;;;;10.96;49.51;98542.06;4972716;28;20026;-82
2023/03/16 03:42:15;;;;;;;18.88;14.90;;;;;;;10.61;49.88;98517.72;4972907;28;20026;-82
2023/03/16 03:44:40;;;;;;;15.98;13.75;;;;;;;10.83;50.42;98531.53;4972099;28;20459;-82
2023/03/16 03:47:06;;;;;;;19.33;15.55;;;;;;;10.68;49.95;98504.53;4972495;28;20065;-82
2023/03/16 03:49:31;;;;;;;17.13;14.80;;;;;;;10.91;50.60;98544.50;4972497;28;20480;-82
2023/03/16 03:51:58;;;;;;;19.55;15.88;;;;;;;10.44;50.38;98469.81;4972231;28;20023;-82
2023/03/16 03:54:24;;;;;;;19.02;14.55;;;;;;;10.95;50.49;98552.84;4972366;28;20019;-82
2023/03/16 03:56:51;;;;;;;16.73;14.35;;;;;;;11.29;50.96;98596.72;4987493;28;20019;-82
2023/03/16 03:59:17;;;;;;;15.85;13.63;;;;;;;11.09;50.65;98560.53;4971168;28;20049;-82
2023/03/16 04:01:42;;;;;;;17.00;13.77;;;;;;;11.02;50.91;98557.09;4972713;28;20420;-81
2023/03/16 04:04:08;;;;;;;17.08;13.65;;;;;;;10.91;50.81;98538.41;4970976;28;20447;-82
2023/03/16 04:06:33;;;;;;;14.68;12.85;;;;;;;11.24;50.92;98605.28;4971126;28;20124;-82
2023/03/16 04:08:58;;;;;;;15.13;12.95;;;;;;;10.61;51.06;98528.28;4972276;28;20041;-82
2023/03/16 04:11:24;;;;;;;14.90;12.68;;;;;;;10.70;51.06;98548.19;4972075;28;20027;-82
2023/03/16 04:13:52;;;;;;;18.02;12.77;;;;;;;11.23;51.13;98638.00;4972246;28;20019;-82
2023/03/16 04:16:19;;;;;;;16.13;13.50;;;;;;;10.58;51.29;98526.03;4972419;28;20022;-82
2023/03/16 04:18:45;;;;;;;14.55;12.73;;;;;;;11.18;51.31;98632.50;4972290;28;20042;-82
2023/03/16 04:21:16;;;;;;;14.55;13.00;;;;;;;11.06;50.95;98610.34;4972285;28;20496;-82
2023/03/16 04:23:42;;;;;;;15.97;12.70;;;;;;;10.70;51.31;98558.75;4972365;28;20062;-82
2023/03/16 04:26:07;;;;;;;15.32;12.57;;;;;;;11.13;51.44;98638.38;4972174;28;20025;-83
2023/03/16 04:28:33;;;;;;;16.70;11.63;;;;;;;10.60;51.25;98560.97;4972186;28;20026;-82
2023/03/16 04:31:04;;;;;;;12.60;10.77;;;;;;;11.11;51.52;98645.69;4970705;28;20504;-82
2023/03/16 04:33:31;;;;;;;12.50;10.53;;;;;;;10.59;51.50;98588.38;4972074;28;20101;-82
2023/03/16 04:35:56;;;;;;;13.48;10.30;;;;;;;10.79;51.54;98598.94;4970831;28;20031;-82
2023/03/16 04:38:22;;;;;;;11.90;10.68;;;;;;;11.08;51.90;98654.03;4971999;28;20571;-83
2023/03/16 04:40:47;;;;;;;13.25;11.50;;;;;;;10.64;51.43;98601.78;4971960;28;20019;-82
2023/03/16 04:43:13;;;;;;;13.25;11.10;;;;;;;11.00;51.44;98643.66;4972159;28;20085;-82
2023/03/16 04:45:38;;;;;;;14.43;10.13;;;;;;;11.08;51.48;98666.41;4971896;28;20109;-82
2023/03/16 04:48:04;;;;;;;13.13;10.77;;;;;;;10.50;51.45;98592.22;4986684;28;20023;-83
2023/03/16 04:50:29;;;;;;;10.75;9.07;;;;;;;10.55;51.97;98615.38;4972050;28;20101;-82
2023/03/16 04:52:55;;;;;;;10.50;9.27;;;;;;;10.50;51.87;98592.22;4971756;28;20049;-82
2023/03/16 04:55:21;;;;;;;9.65;8.45;;;;;;;10.89;51.81;98662.75;4987024;28;20559;-83
2023/03/16 04:57:47;;;;;;;10.38;8.00;;;;;;;10.11;51.97;98554.13;4975331;28;20624;-83
2023/03/16 05:00:18;;;;;;;10.38;8.50;;;;;;;10.53;52.13;98635.88;4975392;28;20064;-83
2023/03/16 05:02:47;;;;;;;9.70;8.45;;;;;;;10.91;51.89;98686.31;4975359;28;20478;-82
2023/03/16 05:05:14;;;;;;;8.00;7.20;;;;;;;10.62;52.31;98642.59;4990231;28;20113;-83
2023/03/16 05:07:40;;;;;;;11.35;8.38;;;;;;;10.35;52.64;98610.03;4975376;28;20475;-83
2023/03/16 05:10:07;;;;;;;9.27;7.65;;;;;;;10.73;52.35;98663.94;4975025;28;20023;-83
2023/03/16 05:12:32;;;;;;;8.93;7.45;;;;;;;10.33;52.02;98604.13;4974807;28;20492;-83
2023/03/16 05:14:58;;;;;;;10.27;7.25;;;;;;;10.25;52.44;98605.13;4975338;28;20034;-82
2023/03/16 05:17:23;;;;;;;13.02;8.57;;;;;;;10.63;52.22;98686.47;4990523;28;20546;-83
2023/03/16 05:19:49;;;;;;;9.48;7.22;;;;;;;10.43;52.81;98665.28;4975111;28;20030;-83
2023/03/16 05:22:14;;;;;;;10.23;8.35;;;;;;;10.48;52.39;98682.16;4975019;28;20524;-83
2023/03/16 05:24:40;;;;;;;8.98;6.55;;;;;;;10.67;52.20;98722.00;4974904;28;20027;-83
2023/03/16 05:27:05;;;;;;;9.82;7.28;;;;;;;10.36;52.23;98667.88;4974949;28;20034;-83
2023/03/16 05:29:31;;;;;;;10.07;7.25;;;;;;;10.62;51.99;98717.31;4989745;28;20097;-83
2023/03/16 05:31:58;;;;;;;8.13;6.47;;;;;;;10.43;51.93;98689.03;4974720;28;20053;-83
2023/03/16 05:34:23;;;;;;;8.85;6.45;;;;;;;10.68;51.70;98724.44;4974640;28;20018;-83
2023/03/16 05:36:49;;;;;;;7.40;5.85;;;;;;;10.15;51.70;98660.88;4974664;28;20508;-83
2023/03/16 05:39:14;;;;;;;7.90;6.43;;;;;;;10.42;51.83;98695.31;4973342;28;20031;-82
2023/03/16 05:41:40;;;;;;;9.02;6.25;;;;;;;10.67;52.06;98736.03;4974674;28;20082;-83
2023/03/16 05:44:06;;;;;;;8.88;6.38;;;;;;;10.68;51.69;98756.13;4989588;28;20397;-83
2023/03/16 05:46:32;;;;;;;10.88;6.95;;;;;;;10.07;51.60;98639.13;4974553;28;20518;-82
2023/03/16 05:48:57;;;;;;;8.65;6.65;;;;;;;10.22;51.03;98668.03;4973258;28;20110;-83
2023/03/16 05:51:25;;;;;;;12.30;7.03;;;;;;;10.50;51.32;98722.34;4974373;28;20460;-83
2023/03/16 05:53:51;;;;;;;7.78;5.78;;;;;;;10.22;51.15;98689.94;4974232;28;20026;-82
2023/03/16 05:56:16;;;;;;;8.93;6.40;;;;;;;10.55;51.63;98747.34;4974320;28;20081;-82
2023/03/16 05:58:42;;;;;;;7.35;5.03;;;;;;;9.86;51.33;98640.88;4974183;28;20389;-82
2023/03/16 06:01:08;;;;;;;5.95;5.15;;;;;;;10.15;51.39;98718.91;4974401;28;20384;-83
2023/03/16 06:03:33;;;;;;;10.00;5.30;;;;;;;9.77;51.44;98649.94;4974349;28;20026;-82
2023/03/16 06:05:58;;;;;;;7.00;4.65;;;;;;;10.00;51.60;98720.03;4974133;28;20026;-82
2023/03/16 06:08:24;;;;;;;5.45;4.57;;;;;;;10.54;51.45;98772.94;4971238;28;20110;-83
2023/03/16 06:10:49;;;;;;;8.00;5.25;;;;;;;9.99;51.43;98708.66;4987787;28;20227;-82
2023/03/16 06:13:15;;;;;;;6.82;4.95;;;;;;;10.01;51.09;98706.66;4971767;28;20026;-83
2023/03/16 06:15:40;;;;;;;7.07;4.88;;;;;;;9.88;51.31;98696.84;4971313;28;20025;-83
2023/03/16 06:18:06;;;;;;;6.65;4.82;;;;;;;9.71;51.31;98678.91;4977427;28;20066;-83
2023/03/16 06:20:31;;;;;;;8.48;5.57;;;;;;;9.84;51.83;98698.25;4988820;28;20007;-83
2023/03/16 06:22:57;;;;;;;7.40;5.60;;;;;;;9.55;51.42;98641.28;4972267;28;20516;-83
2023/03/16 06:25:22;;;;;;;8.50;6.20;;;;;;;9.94;51.43;98716.34;4973644;28;20026;-82
2023/03/16 06:27:48;;;;;;;7.70;6.32;;;;;;;9.34;51.92;98627.34;4975853;28;20030;-82
2023/03/16 06:30:15;;;;;;;5.28;4.60;;;;;;;9.97;51.65;98737.06;4973521;28;20034;-81
2023/03/16 06:32:41;;;;;;;4.63;4.03;;;;;;;10.20;51.91;98771.09;4973359;28;20511;-82
2023/03/16 06:35:08;;;;;;;5.55;4.22;;;;;;;9.79;51.56;98723.56;4973324;28;20033;-82
2023/03/16 06:37:34;;;;;;;7.35;5.20;;;;;;;9.87;51.77;98747.13;4975836;28;20019;-82
2023/03/16 06:39:59;;;;;;;6.35;5.47;;;;;;;9.73;51.73;98735.69;4972380;28;20504;-81
2023/03/16 06:42:25;;;;;;;6.90;5.72;;;;;;;10.38;51.83;98833.91;4973516;28;20097;-83
2023/03/16 06:44:51;;;;;;;6.53;5.03;;;;;;;9.42;51.78;98664.91;4973753;28;20027;-83
2023/03/16 06:47:17;;;;;;;8.48;5.13;;;;;;;9.80;52.02;98722.56;4973232;28;20100;-82
2023/03/16 06:49:42;;;;;;;5.30;4.40;;;;;;;9.63;51.29;98710.66;4971555;28;20504;-82
2023/03/16 06:52:09;;;;;;;10.63;7.25;;;;;;;10.29;51.27;98806.88;4970457;28;20054;-81
2023/03/16 06:54:36;;;;;;;7.60;4.85;;;;;;;10.04;51.55;98780.09;4990015;28;20038;-83
2023/03/16 06:57:02;;;;;;;10.73;7.05;;;;;;;10.49;51.31;98847.41;4982297;28;20031;-82
2023/03/16 06:59:28;;;;;;;6.18;5.35;;;;;;;9.90;51.48;98757.31;4972359;28;20507;-82
2023/03/16 07:01:53;;;;;;;4.95;3.83;;;;;;;10.29;51.15;98820.06;4972649;28;20026;-83
2023/03/16 07:04:19;;;;;;;5.78;4.15;;;;;;;9.94;51.20;98784.09;4971000;28;20037;-82
2023/03/16 07:06:44;;;;;;;6.95;4.05;;;;;;;10.43;51.10;98857.94;4972673;28;20080;-83
2023/03/16 07:09:11;;;;;;;4.53;4.03;;;;;;;10.13;51.08;98831.69;4982460;28;20064;-83
2023/03/16 07:11:37;;;;;;;4.00;3.60;;;;;;;10.37;51.02;98887.69;4971353;28;20053;-82
2023/03/16 07:14:02;;;;;;;5.25;3.97;;;;;;;9.89;51.25;98813.69;4971613;28;20030;-82
2023/03/16 07:16:28;;;;;;;3.58;3.25;;;;;;;10.33;51.19;98871.44;4974280;28;20023;-81
2023/03/16 07:18:54;;;;;;;4.03;3.53;;;;;;;9.48;51.26;98737.91;4970366;28;20428;-81
2023/03/16 07:21:20;;;;;;;4.68;3.40;;;;;;;9.50;50.90;98741.16;4971239;28;20030;-82
2023/03/16 07:23:46;;;;;;;4.15;3.00;;;;;;;10.33;50.52;98878.53;4991797;28;20039;-82
2023/03/16 07:26:12;;;;;;;4.13;3.72;;;;;;;10.27;50.89;98871.41;4971175;28;20035;-81
2023/03/16 07:28:38;;;;;;;4.57;3.83;;;;;;;10.29;50.94;98878.09;4995186;28;20143;-82
2023/03/16 07:31:04;;;;;;;4.43;4.03;;;;;;;9.62;50.77;98786.25;4970392;28;20034;-82
2023/03/16 07:33:32;;;;;;;4.28;3.40;;;;;;;9.89;50.05;98816.31;4968521;28;20030;-81
2023/03/16 07:35:57;;;;;;;6.35;4.82;;;;;;;10.26;50.56;98893.50;4971543;28;20504;-82
2023/03/16 07:38:23;;;;;;;4.50;3.13;;;;;;;10.25;50.07;98887.41;4990382;28;20037;-82
2023/03/16 07:40:48;;;;;;;4.60;3.72;;;;;;;10.07;50.11;98874.66;4987345;28;20018;-83
2023/03/16 07:43:14;;;;;;;4.88;3.58;;;;;;;10.11;50.54;98883.84;4970844;28;20046;-83
2023/03/16 07:45:40;;;;;;;5.97;3.20;;;;;;;10.14;50.79;98890.53;4972233;28;20030;-82
2023/03/16 07:48:06;;;;;;;4.22;3.20;;;;;;;9.60;50.74;98814.63;4972025;28;20015;-83
2023/03/16 07:50:32;;;;;;;4.82;4.32;;;;;;;10.07;51.25;98901.03;4972054;28;20030;-83
2023/03/16 07:52:57;;;;;;;4.40;3.83;;;;;;;9.72;51.15;98844.78;4972242;28;20416;-83
2023/03/16 07:55:22;;;;;;;3.58;3.28;;;;;;;9.65;51.45;98869.41;4987161;28;20023;-83
2023/03/16 07:57:48;;;;;;;5.75;3.50;;;;;;;9.62;51.69;98838.97;4972055;28;20083;-83
2023/03/16 08:00:14;;;;;;;5.18;3.90;;;;;;;10.12;51.32;98918.94;4970517;28;20043;-83
2023/03/16 08:02:40;;;;;;;5.32;4.22;;;;;;;9.82;51.81;98874.25;4970689;28;20033;-83
2023/03/16 08:05:09;;;;;;;4.20;3.60;;;;;;;9.47;51.23;98794.25;4968649;28;20033;-83
2023/03/16 08:07:34;;;;;;;4.20;3.22;;;;;;;10.14;51.59;98899.28;4972146;28;20118;-83
2023/03/16 08:10:00;;;;;;;3.40;2.63;;;;;;;9.44;51.20;98799.91;4969164;28;20141;-83
2023/03/16 08:12:25;;;;;;;4.68;2.60;;;;;;;10.25;51.21;98926.19;4968164;28;20102;-83
2023/03/16 08:14:51;;;;;;;2.97;2.35;;;;;;;10.18;50.93;98926.09;4985720;28;20702;-84
2023/03/16 08:17:16;;;;;;;2.30;2.03;;;;;;;10.13;51.25;98917.94;4971475;28;20027;-83
2023/03/16 08:19:42;;;;;;;4.45;2.60;;;;;;;9.60;51.47;98834.91;4971616;28;20030;-84
2023/03/16 08:22:07;;;;;;;6.80;3.22;;;;;;;9.92;51.22;98873.13;4969540;28;20023;-84
2023/03/16 08:24:33;;;;;;;4.80;3.45;;;;;;;10.22;51.34;98937.09;4985377;28;20014;-85
2023/03/16 08:26:59;;;;;;;5.25;2.92;;;;;;;9.94;51.45;98877.19;4969055;28;20104;-83
2023/03/16 08:29:25;;;;;;;8.20;4.93;;;;;;;10.32;51.38;98927.03;4970724;28;20501;-83
2023/03/16 08:31:56;;;;;;;4.50;3.63;;;;;;;10.26;51.58;98923.34;4975177;28;20034;-81
2023/03/16 08:34:23;;;;;;;6.20;3.40;;;;;;;10.34;51.19;98938.22;4973842;28;20049;-84
2023/03/16 08:36:49;;;;;;;3.05;2.63;;;;;;;10.40;51.29;98935.66;4973365;28;20109;-83
2023/03/16 08:39:14;;;;;;;3.75;2.50;;;;;;;9.91;51.10;98871.50;4974019;28;20479;-83
2023/03/16 08:41:41;;;;;;;2.90;2.03;;;;;;;10.28;51.23;98907.31;4977075;28;20019;-82
2023/03/16 08:44:07;;;;;;;3.92;2.40;;;;;;;10.42;50.76;98931.00;4972725;28;20026;-84
2023/03/16 08:46:33;;;;;;;3.30;2.42;;;;;;;10.42;50.36;98936.28;4975108;28;20406;-83
2023/03/16 08:48:58;;;;;;;5.13;3.25;;;;;;;10.47;50.42;98957.63;4981062;28;20053;-83
2023/03/16 08:51:24;;;;;;;4.88;3.30;;;;;;;10.53;50.56;98942.03;4975960;28;20088;-83
2023/03/16 08:53:50;;;;;;;5.13;3.47;;;;;;;10.18;50.28;98883.88;4989808;28;20053;-83
2023/03/16 08:56:16;;;;;;;4.93;3.28;;;;;;;9.91;49.98;98843.31;4973368;28;20034;-84
2023/03/16 08:58:44;;;;;;;5.32;3.63;;;;;;;10.63;49.72;98953.09;4972783;28;20030;-83
2023/03/16 09:01:11;;;;;;;4.38;3.72;;;;;;;10.61;49.53;98952.47;4970529;28;20102;-83
2023/03/16 09:03:37;;;;;;;4.18;2.58;;;;;;;10.37;49.62;98924.66;4972886;28;20115;-83
2023/03/16 09:06:06;;;;;;;5.18;3.70;;;;;;;10.57;49.43;98948.56;4970561;28;20479;-83
2023/03/16 09:08:32;;;;;;;3.35;2.97;;;;;;;9.98;49.30;98856.53;4972224;28;20518;-81
2023/03/16 09:11:09;;;;;;;5.22;3.50;;;;;;;10.35;49.22;98913.47;4972880;28;20415;-82
2023/03/16 09:13:37;;;;;;;3.05;2.20;;;;;;;10.60;49.48;98964.84;4973601;28;20035;-84
2023/03/16 09:16:04;;;;;;;4.00;2.40;;;;;;;10.08;49.54;98892.13;4974967;28;20019;-84
2023/03/16 09:18:30;;;;;;;3.13;2.58;;;;;;;9.92;49.01;98833.56;4985507;28;20013;-81
2023/03/16 09:21:00;;;;;;;2.28;2.08;;;;;;;10.26;49.11;98896.97;4997302;28;20015;-82
2023/03/16 09:23:26;;;;;;;7.90;3.08;;;;;;;10.69;49.04;98957.59;4978004;28;20414;-83
2023/03/16 09:25:52;;;;;;;4.30;3.50;;;;;;;10.86;48.96;98958.91;4981123;28;20030;-84
2023/03/16 09:28:18;;;;;;;5.68;3.00;;;;;;;10.37;49.26;98854.22;4972869;28;20027;-83
2023/03/16 09:30:44;;;;;;;3.05;2.72;;;;;;;10.50;48.89;98898.38;4972348;28;20377;-85
2023/03/16 09:33:09;;;;;;;4.38;3.05;;;;;;;10.19;48.65;98840.66;4975812;28;20022;-86
2023/03/16 09:35:36;;;;;;;4.88;3.30;;;;;;;11.09;49.03;98966.56;4985812;28;20034;-85
2023/03/16 09:38:02;;;;;;;5.22;2.38;;;;;;;10.73;48.51;98903.38;4973582;28;20504;-85
2023/03/16 09:40:29;;;;;;;5.82;3.60;;;;;;;11.11;48.44;98968.00;4972822;28;20416;-83
2023/03/16 09:43:26;;;;;;;7.93;4.10;;;;;;;11.19;49.75;98972.34;4989959;28;20038;-83
2023/03/16 09:46:10;;;;;;;6.88;4.65;;;;;;;11.17;48.86;98977.00;4972123;28;20018;-85
2023/03/16 09:48:37;;;;;;;3.85;2.75;;;;;;;10.67;48.63;98920.81;4984057;28;20060;-84
2023/03/16 09:51:06;;;;;;;5.00;3.33;;;;;;;11.12;49.16;98987.31;4977923;28;20031;-86
2023/03/16 09:53:38;;;;;;;4.25;2.70;;;;;;;10.59;48.71;98931.53;4988650;28;20019;-85
2023/03/16 09:56:09;;;;;;;4.50;3.20;;;;;;;11.08;49.28;99000.09;4973135;28;20030;-86
2023/03/16 09:58:35;;;;;;;4.82;3.58;;;;;;;11.12;48.43;98982.84;4971460;28;21852;-85
2023/03/16 10:01:19;;;;;;;10.55;6.40;;;;;;;11.18;49.42;98994.47;4967175;28;20087;-86
2023/03/16 10:04:23;;;;;;;4.97;3.70;;;;;;;11.14;48.89;98993.22;4978456;28;20023;-85
2023/03/16 10:07:09;;;;;;;3.72;3.13;;;;;;;10.91;48.30;98953.88;4961412;28;20023;-85
2023/03/16 10:09:49;;;;;;;5.43;3.72;;;;;;;11.23;49.25;98999.19;4958452;28;20117;-86
2023/03/16 10:12:16;;;;;;;5.43;3.47;;;;;;;10.97;48.17;98944.34;4988332;28;20055;-85
2023/03/16 10:14:52;;;;;;;7.20;3.80;;;;;;;11.32;48.73;98998.81;4971791;28;20031;-85
2023/03/16 10:17:25;;;;;;;8.65;3.75;;;;;;;11.38;48.32;98990.13;5006120;28;20022;-84
2023/03/16 10:19:59;;;;;;;4.40;3.50;;;;;;;11.44;48.33;99007.81;4990504;28;20126;-84
2023/03/16 10:22:38;;;;;;;8.60;4.78;;;;;;;11.37;48.06;98992.94;4970882;28;20026;-84
2023/03/16 10:25:29;;;;;;;6.75;5.50;;;;;;;11.44;47.58;98993.78;4981481;28;20022;-84
2023/03/16 10:27:56;;;;;;;5.63;4.00;;;;;;;10.69;47.74;98888.94;4989506;28;20031;-84
2023/03/16 10:30:36;;;;;;;7.28;5.18;;;;;;;11.34;46.46;98995.97;4973789;28;20031;-85
2023/03/16 10:33:28;;;;;;;7.43;4.63;;;;;;;10.87;47.54;98905.09;4969603;28;20019;-84
2023/03/16 10:35:57;;;;;;;6.10;4.47;;;;;;;11.47;47.40;98996.03;4971132;28;20046;-85
2023/03/16 10:38:37;;;;;;;6.72;5.22;;;;;;;10.98;46.76;98922.22;5002474;28;20066;-85
2023/03/16 10:41:19;;;;;;;6.60;3.90;;;;;;;10.26;47.07;98796.72;4971511;28;20105;-84
2023/03/16 10:43:46;;;;;;;6.15;3.97;;;;;;;11.57;46.62;98998.31;4977832;28;20106;-85
2023/03/16 10:46:12;;;;;;;5.80;3.67;;;;;;;11.06;46.32;98930.78;4973182;28;20145;-84
2023/03/16 10:48:39;;;;;;;4.53;2.95;;;;;;;11.23;46.50;98944.50;5001472;28;20042;-84
2023/03/16 10:51:12;;;;;;;7.20;3.85;;;;;;;11.00;45.76;98922.81;4969738;28;20508;-84
2023/03/16 10:53:41;;;;;;;3.40;2.22;;;;;;;11.59;46.15;98998.94;4970678;28;20122;-85
2023/03/16 10:56:17;;;;;;;4.85;4.10;;;;;;;10.93;45.13;98895.56;4955544;28;20523;-84
2023/03/16 10:58:42;;;;;;;6.85;4.60;;;;;;;11.26;45.87;98959.16;4970533;28;20034;-84
2023/03/16 11:01:26;;;;;;;3.03;2.22;;;;;;;10.99;45.31;98942.31;4986491;28;20019;-84
2023/03/16 11:03:55;;;;;;;5.82;3.80;;;;;;;10.82;45.50;98904.84;4971778;28;20046;-84
2023/03/16 11:06:29;;;;;;;4.70;4.07;;;;;;;10.68;44.87;98863.56;4971768;28;20949;-84
2023/03/16 11:09:13;;;;;;;5.03;4.00;;;;;;;11.22;45.10;98939.41;4972178;28;20439;-86
2023/03/16 11:11:45;;;;;;;5.18;2.53;;;;;;;10.95;45.28;98870.59;4965723;28;20058;-86
2023/03/16 11:14:14;;;;;;;3.67;2.40;;;;;;;11.69;44.58;98984.31;4970999;28;20034;-86
2023/03/16 11:16:52;;;;;;;3.03;2.47;;;;;;;11.21;44.66;98906.91;4971037;28;20026;-84
2023/03/16 11:19:38;;;;;;;2.80;2.15;;;;;;;11.67;44.43;98959.09;4971712;28;20065;-83
2023/03/16 11:22:12;;;;;;;8.48;5.47;;;;;;;11.90;44.87;98985.25;4972697;28;20054;-84
2023/03/16 11:24:52;;;;;;;6.07;4.22;;;;;;;11.94;44.63;98983.84;4968586;28;20471;-84
2023/03/16 11:27:36;;;;;;;4.10;3.20;;;;;;;11.83;44.89;98977.28;4979595;28;20057;-84
2023/03/16 11:30:29;;;;;;;3.10;2.80;;;;;;;11.84;44.57;98978.91;4970473;28;20061;-85
2023/03/16 11:32:56;;;;;;;8.57;5.63;;;;;;;11.86;45.17;98982.16;4975674;28;20102;-85